Time;durP1;ratioP1;P1;durP2;ratioP2;P2;SDS_P1;SDS_P2;PMS_P1;PMS_P2;Temp;Humidity;BMP_temperature;BMP_pressure;BME280_temperature;BME280_humidity;BME280_pressure;Samples;Min_cycle;Max_cycle;Signal;HPM_P1;HPM_P2
2022/06/19 00:02:27;;;;;;;6.10;5.50;;;;;;;;;;5075438;28;20484;-73
2022/06/19 00:04:55;;;;;;;6.37;5.77;;;;;;;;;;5075333;28;20466;-73
2022/06/19 00:07:23;;;;;;;6.57;5.50;;;;;;;;;;5075301;28;20459;-73
2022/06/19 00:09:51;;;;;;;7.27;5.30;;;;;;;;;;5075305;28;20454;-73
2022/06/19 00:12:19;;;;;;;13.50;5.20;;;;;;;;;;5075125;28;20475;-73
2022/06/19 00:14:46;;;;;;;6.23;4.93;;;;;;;;;;5074960;28;20491;-73
2022/06/19 00:17:13;;;;;;;7.73;4.90;;;;;;;;;;5075088;28;20454;-73
2022/06/19 00:19:41;;;;;;;7.27;5.97;;;;;;;;;;5075073;28;20458;-73
2022/06/19 00:22:08;;;;;;;5.27;4.77;;;;;;;;;;5074920;28;20468;-73
2022/06/19 00:24:35;;;;;;;5.60;5.10;;;;;;;;;;5074672;28;20466;-73
2022/06/19 00:27:04;;;;;;;5.17;4.67;;;;;;;;;;5074919;28;20455;-73
2022/06/19 00:29:31;;;;;;;6.30;5.03;;;;;;;;;;5075044;28;20459;-73
2022/06/19 00:31:58;;;;;;;5.83;5.27;;;;;;;;;;5074888;28;20472;-73
2022/06/19 00:34:25;;;;;;;8.57;5.10;;;;;;;;;;5074654;28;20484;-73
2022/06/19 00:36:52;;;;;;;5.57;5.07;;;;;;;;;;5074738;28;20452;-73
2022/06/19 00:39:20;;;;;;;8.30;4.87;;;;;;;;;;5074744;28;20458;-73
2022/06/19 00:41:48;;;;;;;6.37;5.77;;;;;;;;;;5074922;28;20991;-73
2022/06/19 00:44:17;;;;;;;6.93;5.10;;;;;;;;;;5074378;28;20450;-73
2022/06/19 00:46:47;;;;;;;6.30;5.70;;;;;;;;;;5074681;28;21019;-73
2022/06/19 00:49:17;;;;;;;6.00;4.97;;;;;;;;;;5074518;28;20444;-73
2022/06/19 00:51:45;;;;;;;4.80;4.40;;;;;;;;;;5074290;28;20479;-73
2022/06/19 00:54:14;;;;;;;5.50;4.83;;;;;;;;;;5074087;28;20483;-73
2022/06/19 00:56:41;;;;;;;5.80;5.30;;;;;;;;;;5074468;28;20551;-73
2022/06/19 00:59:09;;;;;;;6.00;4.50;;;;;;;;;;5074223;28;20483;-73
2022/06/19 01:01:38;;;;;;;6.03;5.43;;;;;;;;;;5074407;28;20476;-73
2022/06/19 01:04:08;;;;;;;8.67;5.63;;;;;;;;;;5074213;28;20452;-73
2022/06/19 01:06:35;;;;;;;6.47;5.53;;;;;;;;;;5074209;28;20458;-73
2022/06/19 01:09:02;;;;;;;7.47;5.87;;;;;;;;;;5074292;28;20800;-73
2022/06/19 01:11:31;;;;;;;6.03;5.00;;;;;;;;;;5073984;28;20478;-73
2022/06/19 01:13:58;;;;;;;6.53;5.17;;;;;;;;;;5073848;28;20975;-73
2022/06/19 01:16:25;;;;;;;5.50;5.00;;;;;;;;;;5073880;28;20526;-73
2022/06/19 01:18:54;;;;;;;6.60;5.90;;;;;;;;;;5074110;28;20447;-73
2022/06/19 01:21:25;;;;;;;7.90;4.80;;;;;;;;;;5073822;28;20479;-73
2022/06/19 01:23:57;;;;;;;6.63;6.03;;;;;;;;;;5073822;28;20456;-73
2022/06/19 01:26:26;;;;;;;11.53;5.53;;;;;;;;;;5073825;28;20820;-73
2022/06/19 01:28:56;;;;;;;6.60;5.00;;;;;;;;;;5073808;28;20463;-73
2022/06/19 01:31:26;;;;;;;7.27;6.13;;;;;;;;;;5073622;28;20476;-73
2022/06/19 01:33:54;;;;;;;6.60;5.20;;;;;;;;;;5073841;28;20444;-73
2022/06/19 01:36:23;;;;;;;6.60;6.10;;;;;;;;;;5073499;28;21016;-73
2022/06/19 01:38:51;;;;;;;6.03;5.43;;;;;;;;;;5073696;28;20481;-73
2022/06/19 01:41:21;;;;;;;10.17;6.47;;;;;;;;;;5073408;28;20472;-73
2022/06/19 01:43:50;;;;;;;7.47;5.57;;;;;;;;;;5073276;28;20459;-73
2022/06/19 01:46:19;;;;;;;6.47;5.87;;;;;;;;;;5073543;28;20812;-73
2022/06/19 01:48:46;;;;;;;7.27;5.40;;;;;;;;;;5073388;28;20448;-73
2022/06/19 01:51:14;;;;;;;6.80;6.10;;;;;;;;;;5073294;28;20471;-73
2022/06/19 01:53:42;;;;;;;10.30;5.77;;;;;;;;;;5072975;28;20461;-73
2022/06/19 01:56:11;;;;;;;7.40;5.70;;;;;;;;;;5073104;28;20533;-73
2022/06/19 01:58:39;;;;;;;14.10;6.77;;;;;;;;;;5073388;28;20467;-73
2022/06/19 02:01:09;;;;;;;9.47;5.67;;;;;;;;;;5073173;28;20483;-73
2022/06/19 02:03:38;;;;;;;10.80;5.97;;;;;;;;;;5073185;28;20450;-73
2022/06/19 02:06:05;;;;;;;11.10;7.00;;;;;;;;;;5073198;28;20447;-73
2022/06/19 02:08:35;;;;;;;8.20;6.60;;;;;;;;;;5073168;28;20452;-73
2022/06/19 02:11:02;;;;;;;16.60;6.30;;;;;;;;;;5072673;28;20521;-73
2022/06/19 02:13:32;;;;;;;10.40;6.83;;;;;;;;;;5072991;28;20460;-73
2022/06/19 02:15:59;;;;;;;7.03;5.63;;;;;;;;;;5073028;28;20604;-73
2022/06/19 02:18:30;;;;;;;9.30;6.50;;;;;;;;;;5073140;28;20462;-73
2022/06/19 02:20:57;;;;;;;9.03;5.80;;;;;;;;;;5072975;28;20841;-73
2022/06/19 02:23:27;;;;;;;6.37;5.77;;;;;;;;;;5072653;28;20452;-73
2022/06/19 02:25:54;;;;;;;6.80;6.10;;;;;;;;;;5072884;28;20447;-73
2022/06/19 02:28:21;;;;;;;9.23;5.90;;;;;;;;;;5072862;28;20960;-73
2022/06/19 02:30:49;;;;;;;6.57;5.83;;;;;;;;;;5072843;28;20985;-73
2022/06/19 02:33:17;;;;;;;7.60;5.17;;;;;;;;;;5073075;28;20458;-73
2022/06/19 02:35:46;;;;;;;8.70;5.90;;;;;;;;;;5072504;28;21015;-73
2022/06/19 02:38:15;;;;;;;11.50;8.10;;;;;;;;;;5072684;28;20452;-73
2022/06/19 02:40:48;;;;;;;8.73;5.87;;;;;;;;;;5072808;28;20472;-73
2022/06/19 02:43:18;;;;;;;9.30;5.07;;;;;;;;;;5072822;28;20455;-73
2022/06/19 02:45:45;;;;;;;5.47;4.70;;;;;;;;;;5072682;28;20972;-73
2022/06/19 02:48:17;;;;;;;5.17;4.63;;;;;;;;;;5072619;28;20448;-73
2022/06/19 02:50:45;;;;;;;5.67;4.60;;;;;;;;;;5072862;28;20467;-73
2022/06/19 02:53:12;;;;;;;6.63;4.97;;;;;;;;;;5072433;28;20953;-73
2022/06/19 02:55:41;;;;;;;8.30;5.57;;;;;;;;;;5072538;28;20907;-73
2022/06/19 02:58:08;;;;;;;5.70;5.00;;;;;;;;;;5072709;28;20458;-73
2022/06/19 03:00:35;;;;;;;7.90;6.47;;;;;;;;;;5072477;28;20471;-73
2022/06/19 03:03:06;;;;;;;6.40;5.53;;;;;;;;;;5072578;28;20452;-73
2022/06/19 03:05:33;;;;;;;6.80;5.07;;;;;;;;;;5072564;28;20448;-73
2022/06/19 03:08:02;;;;;;;9.50;6.93;;;;;;;;;;5072612;28;20456;-73
2022/06/19 03:10:30;;;;;;;7.33;5.50;;;;;;;;;;5072552;28;20517;-73
2022/06/19 03:12:58;;;;;;;6.90;6.10;;;;;;;;;;5072373;28;20516;-73
2022/06/19 03:15:25;;;;;;;7.73;6.10;;;;;;;;;;5072098;28;20537;-73
2022/06/19 03:17:53;;;;;;;7.73;6.40;;;;;;;;;;5072482;28;20455;-73
2022/06/19 03:20:21;;;;;;;10.83;6.33;;;;;;;;;;5072346;28;20451;-73
2022/06/19 03:22:48;;;;;;;13.83;6.83;;;;;;;;;;5072438;28;20455;-73
2022/06/19 03:25:17;;;;;;;14.30;8.80;;;;;;;;;;5075429;28;20463;-73
2022/06/19 03:27:44;;;;;;;15.03;6.37;;;;;;;;;;5076188;28;20459;-73
2022/06/19 03:30:12;;;;;;;7.07;6.30;;;;;;;;;;5076024;28;20945;-73
2022/06/19 03:32:40;;;;;;;6.30;5.30;;;;;;;;;;5076105;28;20454;-73
2022/06/19 03:35:07;;;;;;;8.53;5.83;;;;;;;;;;5075633;28;20513;-73
2022/06/19 03:37:34;;;;;;;5.53;4.80;;;;;;;;;;5075940;28;20484;-73
2022/06/19 03:40:02;;;;;;;11.83;5.60;;;;;;;;;;5075858;28;20451;-73
2022/06/19 03:42:30;;;;;;;6.17;5.57;;;;;;;;;;5075822;28;20470;-73
2022/06/19 03:44:57;;;;;;;9.20;5.63;;;;;;;;;;5075682;28;20976;-73
2022/06/19 03:47:26;;;;;;;6.53;5.53;;;;;;;;;;5075648;28;20455;-73
2022/06/19 03:49:54;;;;;;;6.23;4.80;;;;;;;;;;5075789;28;20447;-73
2022/06/19 03:52:21;;;;;;;7.10;5.20;;;;;;;;;;5075468;28;20480;-73
2022/06/19 03:54:48;;;;;;;5.60;4.50;;;;;;;;;;5075490;28;20813;-73
2022/06/19 03:57:16;;;;;;;11.30;4.90;;;;;;;;;;5075525;28;20459;-73
2022/06/19 03:59:44;;;;;;;6.13;4.70;;;;;;;;;;5075673;28;20439;-73
2022/06/19 04:02:12;;;;;;;6.87;4.43;;;;;;;;;;5075592;28;20475;-73
2022/06/19 04:04:40;;;;;;;5.37;4.70;;;;;;;;;;5075639;28;20948;-73
2022/06/19 04:07:07;;;;;;;10.37;5.57;;;;;;;;;;5075464;28;20491;-73
2022/06/19 04:09:35;;;;;;;5.30;4.80;;;;;;;;;;5075446;28;20451;-73
2022/06/19 04:12:02;;;;;;;5.50;4.40;;;;;;;;;;5075372;28;20859;-73
2022/06/19 04:14:29;;;;;;;10.93;5.00;;;;;;;;;;5075076;28;20451;-73
2022/06/19 04:16:57;;;;;;;6.20;4.60;;;;;;;;;;5075323;28;20883;-73
2022/06/19 04:19:25;;;;;;;4.70;4.10;;;;;;;;;;5075242;28;20444;-73
2022/06/19 04:21:52;;;;;;;6.90;4.60;;;;;;;;;;5075138;28;20468;-73
2022/06/19 04:24:20;;;;;;;5.83;4.63;;;;;;;;;;5074739;28;20467;-73
2022/06/19 04:26:48;;;;;;;7.17;4.00;;;;;;;;;;5075237;28;20448;-73
2022/06/19 04:29:15;;;;;;;7.60;4.20;;;;;;;;;;5074906;28;20451;-73
2022/06/19 04:31:42;;;;;;;6.03;3.87;;;;;;;;;;5075004;28;20816;-73
2022/06/19 04:34:11;;;;;;;8.33;4.00;;;;;;;;;;5074129;28;20462;-73
2022/06/19 04:36:39;;;;;;;8.83;4.60;;;;;;;;;;5074810;28;20503;-73
2022/06/19 04:39:06;;;;;;;5.73;3.60;;;;;;;;;;5074796;28;20447;-73
2022/06/19 04:41:36;;;;;;;5.63;3.97;;;;;;;;;;5075069;28;20471;-73
2022/06/19 04:44:03;;;;;;;6.10;4.20;;;;;;;;;;5074547;28;20463;-73
2022/06/19 04:46:30;;;;;;;5.97;4.20;;;;;;;;;;5074832;28;20443;-73
2022/06/19 04:48:58;;;;;;;9.60;4.07;;;;;;;;;;5074771;28;20460;-73
2022/06/19 04:51:26;;;;;;;4.33;3.90;;;;;;;;;;5074470;28;20468;-73
2022/06/19 04:53:54;;;;;;;5.07;4.10;;;;;;;;;;5073754;28;20459;-72
2022/06/19 04:56:21;;;;;;;5.30;4.03;;;;;;;;;;5074502;28;21018;-72
2022/06/19 04:58:49;;;;;;;5.63;4.13;;;;;;;;;;5074431;28;20458;-72
2022/06/19 05:01:21;;;;;;;4.30;3.03;;;;;;;;;;5074291;28;20822;-72
2022/06/19 05:03:48;;;;;;;8.03;4.10;;;;;;;;;;5074271;28;20459;-72
2022/06/19 05:06:15;;;;;;;5.53;3.73;;;;;;;;;;5074220;28;20458;-73
2022/06/19 05:08:43;;;;;;;6.27;4.40;;;;;;;;;;5074309;28;20448;-73
2022/06/19 05:11:11;;;;;;;4.63;4.20;;;;;;;;;;5074155;28;20503;-73
2022/06/19 05:13:38;;;;;;;10.37;4.90;;;;;;;;;;5073978;28;20452;-73
2022/06/19 05:16:06;;;;;;;8.40;4.83;;;;;;;;;;5073921;28;20482;-72
2022/06/19 05:18:34;;;;;;;10.40;5.10;;;;;;;;;;5074065;28;20447;-73
2022/06/19 05:21:02;;;;;;;12.13;6.47;;;;;;;;;;5073933;28;20503;-73
2022/06/19 05:23:29;;;;;;;7.90;5.67;;;;;;;;;;5073540;28;20482;-71
2022/06/19 05:26:01;;;;;;;9.53;6.07;;;;;;;;;;5074056;28;20449;-71
2022/06/19 05:28:29;;;;;;;9.00;5.33;;;;;;;;;;5073909;28;20463;-71
2022/06/19 05:30:56;;;;;;;6.80;4.97;;;;;;;;;;5073768;28;20477;-71
2022/06/19 05:33:24;;;;;;;9.53;5.10;;;;;;;;;;5073812;28;20454;-71
2022/06/19 05:35:51;;;;;;;10.57;5.57;;;;;;;;;;5073711;28;20482;-71
2022/06/19 05:38:18;;;;;;;10.37;4.00;;;;;;;;;;5073714;28;20670;-71
2022/06/19 05:40:45;;;;;;;6.00;4.80;;;;;;;;;;5073594;28;20233;-71
2022/06/19 05:43:13;;;;;;;7.50;5.10;;;;;;;;;;5073654;28;20209;-71
2022/06/19 05:45:41;;;;;;;16.17;7.63;;;;;;;;;;5073214;28;20217;-71
2022/06/19 05:48:08;;;;;;;16.50;9.53;;;;;;;;;;5073058;28;20209;-71
2022/06/19 05:50:35;;;;;;;7.90;4.87;;;;;;;;;;5073627;28;20231;-71
2022/06/19 05:53:02;;;;;;;8.60;3.40;;;;;;;;;;5073138;28;20304;-71
2022/06/19 05:55:29;;;;;;;6.30;3.20;;;;;;;;;;5073232;28;20307;-71
2022/06/19 05:57:57;;;;;;;6.77;3.80;;;;;;;;;;5073413;28;20212;-71
2022/06/19 06:00:25;;;;;;;6.30;3.27;;;;;;;;;;5073239;28;20232;-71
2022/06/19 06:02:52;;;;;;;8.37;4.10;;;;;;;;;;5073355;28;20217;-71
2022/06/19 06:05:20;;;;;;;9.07;3.10;;;;;;;;;;5073099;28;20204;-71
2022/06/19 06:07:49;;;;;;;5.67;3.60;;;;;;;;;;5073402;28;20212;-71
2022/06/19 06:10:16;;;;;;;7.97;4.00;;;;;;;;;;5072958;28;20209;-71
2022/06/19 06:12:43;;;;;;;5.13;3.25;;;;;;;;;;5073297;28;20751;-71
2022/06/19 06:15:11;;;;;;;3.75;3.42;;;;;;;;;;5073005;28;20295;-71
2022/06/19 06:17:40;;;;;;;5.50;3.50;;;;;;;;;;5073098;28;20240;-71
2022/06/19 06:20:07;;;;;;;7.07;4.20;;;;;;;;;;5072957;28;20204;-71
2022/06/19 06:22:34;;;;;;;5.53;3.57;;;;;;;;;;5073089;28;20204;-71
2022/06/19 06:25:01;;;;;;;3.73;3.17;;;;;;;;;;5072751;28;20217;-71
2022/06/19 06:27:28;;;;;;;5.60;3.70;;;;;;;;;;5073128;28;20650;-71
2022/06/19 06:29:56;;;;;;;5.90;3.80;;;;;;;;;;5073018;28;20545;-71
2022/06/19 06:32:23;;;;;;;8.27;3.80;;;;;;;;;;5072778;28;20706;-71
2022/06/19 06:34:51;;;;;;;9.00;3.80;;;;;;;;;;5072920;28;20205;-71
2022/06/19 06:37:18;;;;;;;4.60;3.20;;;;;;;;;;5072731;28;20225;-72
2022/06/19 06:39:45;;;;;;;6.30;3.73;;;;;;;;;;5072976;28;20955;-73
2022/06/19 06:42:12;;;;;;;6.17;3.87;;;;;;;;;;5072691;28;20475;-73
2022/06/19 06:44:39;;;;;;;4.70;3.33;;;;;;;;;;5072808;28;20223;-73
2022/06/19 06:47:07;;;;;;;4.80;3.73;;;;;;;;;;5072752;28;20670;-73
2022/06/19 06:49:34;;;;;;;10.73;3.90;;;;;;;;;;5072761;28;20455;-73
2022/06/19 06:52:07;;;;;;;6.30;3.90;;;;;;;;;;5072190;28;20842;-73
2022/06/19 06:54:35;;;;;;;8.83;4.77;;;;;;;;;;5072550;28;20213;-71
2022/06/19 06:57:02;;;;;;;8.87;3.83;;;;;;;;;;5072610;28;20601;-71
2022/06/19 06:59:30;;;;;;;6.60;3.40;;;;;;;;;;5077106;28;20209;-71
2022/06/19 07:01:57;;;;;;;5.70;4.00;;;;;;;;;;5076607;28;20232;-71
2022/06/19 07:04:24;;;;;;;8.23;4.07;;;;;;;;;;5076242;28;20701;-71
2022/06/19 07:06:51;;;;;;;8.38;4.45;;;;;;;;;;5076948;28;20215;-71
2022/06/19 07:09:19;;;;;;;9.43;3.20;;;;;;;;;;5076562;28;20216;-72
2022/06/19 07:11:47;;;;;;;5.53;3.22;;;;;;;;;;5076447;28;20232;-72
2022/06/19 07:14:14;;;;;;;7.95;3.47;;;;;;;;;;5076130;28;20231;-71
2022/06/19 07:16:42;;;;;;;7.18;3.40;;;;;;;;;;5076251;28;20233;-71
2022/06/19 07:19:09;;;;;;;5.85;3.20;;;;;;;;;;5076354;28;20215;-71
2022/06/19 07:21:36;;;;;;;5.55;3.50;;;;;;;;;;5076415;28;20236;-72
2022/06/19 07:24:04;;;;;;;7.97;4.10;;;;;;;;;;5075821;28;20220;-72
2022/06/19 07:26:33;;;;;;;8.60;3.67;;;;;;;;;;5076411;28;20638;-72
2022/06/19 07:29:00;;;;;;;8.52;3.17;;;;;;;;;;5076068;28;20220;-71
2022/06/19 07:31:27;;;;;;;6.82;3.38;;;;;;;;;;5075888;28;20239;-71
2022/06/19 07:33:54;;;;;;;6.72;3.60;;;;;;;;;;5075687;28;20213;-71
2022/06/19 07:36:22;;;;;;;13.20;4.35;;;;;;;;;;5075836;28;20233;-71
2022/06/19 07:38:49;;;;;;;11.00;3.67;;;;;;;;;;5076111;28;20215;-71
2022/06/19 07:41:16;;;;;;;12.10;4.18;;;;;;;;;;5075917;28;20727;-71
2022/06/19 07:43:45;;;;;;;8.50;4.13;;;;;;;;;;5075762;28;20212;-71
2022/06/19 07:46:13;;;;;;;7.70;3.67;;;;;;;;;;5075927;28;20208;-71
2022/06/19 07:51:23;;;;;;;9.15;3.42;;;;;;;;;;5052904;28;20315;-71
2022/06/19 07:53:50;;;;;;;13.10;3.25;;;;;;;;;;5075440;28;20209;-71
2022/06/19 07:56:17;;;;;;;8.15;4.15;;;;;;;;;;5075766;28;20205;-71
2022/06/19 07:58:46;;;;;;;8.98;3.92;;;;;;;;;;5075637;28;20215;-71
2022/06/19 08:01:14;;;;;;;7.28;4.07;;;;;;;;;;5075564;28;20755;-71
2022/06/19 08:03:41;;;;;;;11.20;4.20;;;;;;;;;;5075743;28;20217;-73
2022/06/19 08:06:08;;;;;;;9.03;4.43;;;;;;;;;;5075856;28;20674;-73
2022/06/19 08:08:35;;;;;;;13.23;4.30;;;;;;;;;;5075570;28;20214;-73
2022/06/19 08:11:02;;;;;;;8.67;3.80;;;;;;;;;;5074575;28;20231;-74
2022/06/19 08:13:31;;;;;;;9.17;4.00;;;;;;;;;;5071753;28;20291;-74
2022/06/19 08:16:02;;;;;;;10.87;4.87;;;;;;;;;;5074079;28;20216;-74
2022/06/19 08:18:30;;;;;;;9.77;3.20;;;;;;;;;;5073708;28;20221;-74
2022/06/19 08:20:57;;;;;;;8.23;3.57;;;;;;;;;;5073311;28;20240;-74
2022/06/19 08:23:24;;;;;;;9.27;4.30;;;;;;;;;;5077837;28;20204;-74
2022/06/19 08:25:52;;;;;;;8.30;3.63;;;;;;;;;;5093441;28;20665;-74
2022/06/19 08:28:20;;;;;;;6.63;3.80;;;;;;;;;;5093852;28;20204;-72
2022/06/19 08:30:48;;;;;;;10.10;4.18;;;;;;;;;;5093879;28;20300;-72
2022/06/19 08:33:16;;;;;;;5.82;4.22;;;;;;;;;;5093882;28;20212;-72
2022/06/19 08:35:45;;;;;;;12.48;4.63;;;;;;;;;;5093715;28;20204;-72
2022/06/19 08:38:14;;;;;;;10.38;3.78;;;;;;;;;;5093508;28;20243;-72
2022/06/19 08:40:48;;;;;;;10.00;4.40;;;;;;;;;;5092395;28;20230;-73
2022/06/19 08:43:25;;;;;;;10.80;4.53;;;;;;;;;;5092958;28;20208;-72
2022/06/19 08:45:59;;;;;;;8.90;4.33;;;;;;;;;;5092213;28;20203;-72
2022/06/19 08:48:33;;;;;;;7.40;3.60;;;;;;;;;;5093321;28;20214;-72
2022/06/19 08:51:02;;;;;;;11.97;5.33;;;;;;;;;;5093327;28;20232;-72
2022/06/19 08:53:45;;;;;;;9.00;4.10;;;;;;;;;;5092691;28;20212;-72
2022/06/19 08:56:15;;;;;;;8.63;4.00;;;;;;;;;;5093150;28;20230;-72
2022/06/19 08:58:45;;;;;;;9.88;3.80;;;;;;;;;;5093086;28;20228;-72
2022/06/19 09:01:17;;;;;;;4.75;3.30;;;;;;;;;;5092783;28;20239;-72
2022/06/19 09:06:41;;;;;;;14.53;5.00;;;;;;;;;;5093319;28;20688;-72
2022/06/19 09:09:15;;;;;;;17.20;4.78;;;;;;;;;;5092898;28;20222;-72
2022/06/19 09:11:47;;;;;;;10.07;3.87;;;;;;;;;;5092859;28;20246;-72
2022/06/19 09:14:28;;;;;;;13.23;4.30;;;;;;;;;;5092690;28;20208;-72
2022/06/19 09:17:01;;;;;;;8.70;4.87;;;;;;;;;;5092510;28;20243;-72
2022/06/19 09:19:37;;;;;;;8.48;4.22;;;;;;;;;;5092957;28;20302;-72
2022/06/19 09:22:12;;;;;;;10.65;4.22;;;;;;;;;;5092815;28;20708;-72
2022/06/19 09:24:48;;;;;;;15.00;5.22;;;;;;;;;;5092679;28;20510;-72
2022/06/19 09:27:16;;;;;;;14.98;4.80;;;;;;;;;;5092705;28;20226;-72
2022/06/19 09:29:46;;;;;;;14.45;4.80;;;;;;;;;;5092549;28;20204;-72
2022/06/19 09:32:16;;;;;;;12.30;4.60;;;;;;;;;;5092735;28;20719;-72
2022/06/19 09:34:48;;;;;;;8.82;3.95;;;;;;;;;;5092359;28;20426;-72
2022/06/19 09:37:17;;;;;;;15.27;4.18;;;;;;;;;;5090835;28;20700;-73
2022/06/19 09:39:47;;;;;;;13.68;4.30;;;;;;;;;;5092589;28;20211;-73
2022/06/19 09:42:17;;;;;;;7.82;4.47;;;;;;;;;;5092444;28;20239;-72
2022/06/19 09:44:46;;;;;;;7.28;4.22;;;;;;;;;;5092564;28;20207;-72
2022/06/19 09:47:14;;;;;;;14.02;5.47;;;;;;;;;;5092209;28;20208;-72
2022/06/19 09:49:46;;;;;;;9.23;4.83;;;;;;;;;;5092381;28;20669;-72
2022/06/19 09:52:16;;;;;;;12.05;4.60;;;;;;;;;;5091555;28;20231;-72
2022/06/19 09:54:45;;;;;;;15.95;4.03;;;;;;;;;;5092243;28;20215;-72
2022/06/19 09:57:13;;;;;;;14.10;4.37;;;;;;;;;;5091998;28;20227;-72
2022/06/19 09:59:44;;;;;;;11.77;4.53;;;;;;;;;;5092316;28;20575;-72
2022/06/19 10:02:16;;;;;;;11.05;4.53;;;;;;;;;;5091594;28;20231;-72
2022/06/19 10:04:45;;;;;;;10.68;3.63;;;;;;;;;;5090410;28;20214;-73
2022/06/19 10:07:24;;;;;;;11.10;4.60;;;;;;;;;;5092027;28;20216;-72
2022/06/19 10:09:54;;;;;;;12.40;5.10;;;;;;;;;;5091252;28;20587;-72
2022/06/19 10:12:27;;;;;;;14.50;4.40;;;;;;;;;;5091362;28;20243;-74
2022/06/19 10:14:58;;;;;;;19.73;5.00;;;;;;;;;;5093083;28;20238;-72
2022/06/19 10:17:27;;;;;;;9.30;4.40;;;;;;;;;;5092970;28;20596;-72
2022/06/19 10:19:57;;;;;;;11.93;4.83;;;;;;;;;;5093106;28;20207;-72
2022/06/19 10:22:39;;;;;;;14.23;4.57;;;;;;;;;;5092958;28;20702;-72
2022/06/19 10:25:17;;;;;;;11.53;3.80;;;;;;;;;;5090550;28;20681;-73
2022/06/19 10:27:52;;;;;;;13.93;4.47;;;;;;;;;;5093166;28;20211;-73
2022/06/19 10:30:22;;;;;;;16.07;4.90;;;;;;;;;;5092941;28;20203;-73
2022/06/19 10:32:58;;;;;;;12.73;4.30;;;;;;;;;;5092661;28;20243;-72
2022/06/19 10:35:29;;;;;;;12.97;4.20;;;;;;;;;;5093055;28;20235;-73
2022/06/19 10:38:03;;;;;;;12.17;4.00;;;;;;;;;;5093198;28;20239;-73
2022/06/19 10:40:38;;;;;;;16.13;4.77;;;;;;;;;;5093015;28;20259;-72
2022/06/19 10:43:09;;;;;;;16.13;4.90;;;;;;;;;;5092964;28;20938;-72
2022/06/19 10:45:40;;;;;;;10.00;5.03;;;;;;;;;;5092735;28;20222;-72
2022/06/19 10:48:14;;;;;;;17.10;6.00;;;;;;;;;;5092860;28;20218;-72
2022/06/19 10:50:45;;;;;;;14.80;5.03;;;;;;;;;;5092836;28;20728;-72
2022/06/19 10:53:23;;;;;;;11.60;5.33;;;;;;;;;;5092335;28;20204;-73
2022/06/19 10:55:55;;;;;;;11.60;4.93;;;;;;;;;;5092677;28;20212;-73
2022/06/19 10:58:24;;;;;;;12.37;4.73;;;;;;;;;;5092821;28;20322;-72
2022/06/19 11:00:52;;;;;;;11.93;4.10;;;;;;;;;;5092884;28;20230;-72
2022/06/19 11:06:10;;;;;;;12.30;4.07;;;;;;;;;;5092585;28;20676;-73
2022/06/19 11:08:37;;;;;;;16.53;5.67;;;;;;;;;;5092896;28;20447;-72
2022/06/19 11:11:06;;;;;;;12.87;4.37;;;;;;;;;;5092716;28;20228;-72
2022/06/19 11:13:52;;;;;;;14.60;4.43;;;;;;;;;;5092883;28;20646;-74
2022/06/19 11:16:19;;;;;;;10.77;5.10;;;;;;;;;;5092578;28;20454;-73
2022/06/19 11:18:47;;;;;;;15.93;5.50;;;;;;;;;;5092619;28;20254;-73
2022/06/19 11:21:17;;;;;;;11.70;4.73;;;;;;;;;;5092643;28;20833;-73
2022/06/19 11:23:52;;;;;;;11.80;4.67;;;;;;;;;;5092444;28;20967;-73
2022/06/19 11:26:22;;;;;;;12.60;5.10;;;;;;;;;;5092785;28;20211;-74
2022/06/19 11:28:52;;;;;;;14.43;5.10;;;;;;;;;;5092656;28;20215;-73
2022/06/19 11:31:21;;;;;;;10.80;4.47;;;;;;;;;;5092458;28;20232;-73
2022/06/19 11:33:50;;;;;;;8.83;4.90;;;;;;;;;;5092422;28;20296;-73
2022/06/19 11:36:30;;;;;;;7.30;5.10;;;;;;;;;;5092496;28;20689;-73
2022/06/19 11:38:57;;;;;;;15.13;5.40;;;;;;;;;;5092550;28;20224;-73
2022/06/19 11:41:30;;;;;;;14.97;5.20;;;;;;;;;;5092373;28;20724;-73
2022/06/19 11:44:02;;;;;;;17.50;6.00;;;;;;;;;;5092533;28;20594;-73
2022/06/19 11:46:30;;;;;;;9.57;5.40;;;;;;;;;;5096077;28;20204;-73
2022/06/19 11:48:57;;;;;;;14.63;5.50;;;;;;;;;;5096156;28;20212;-73
2022/06/19 11:51:26;;;;;;;19.87;5.67;;;;;;;;;;5095955;28;20720;-73
2022/06/19 11:53:56;;;;;;;16.20;6.50;;;;;;;;;;5095593;28;20575;-73
2022/06/19 11:56:24;;;;;;;15.83;6.10;;;;;;;;;;5095972;28;20299;-73
2022/06/19 11:58:58;;;;;;;14.33;5.80;;;;;;;;;;5095972;28;20232;-73
2022/06/19 12:01:36;;;;;;;16.50;5.50;;;;;;;;;;5095888;28;20228;-73
2022/06/19 12:04:05;;;;;;;15.30;5.30;;;;;;;;;;5095686;28;20204;-73
2022/06/19 12:06:40;;;;;;;12.90;5.70;;;;;;;;;;5095851;28;20556;-73
2022/06/19 12:09:09;;;;;;;16.33;5.43;;;;;;;;;;5095800;28;20209;-73
2022/06/19 12:11:38;;;;;;;15.90;5.70;;;;;;;;;;5095890;28;20236;-73
2022/06/19 12:14:07;;;;;;;18.83;5.80;;;;;;;;;;5095485;28;20544;-73
2022/06/19 12:16:34;;;;;;;15.47;6.40;;;;;;;;;;5095680;28;20935;-73
2022/06/19 12:19:16;;;;;;;18.47;5.50;;;;;;;;;;5095355;28;20482;-73
2022/06/19 12:21:47;;;;;;;21.83;5.83;;;;;;;;;;5095713;28;20581;-73
2022/06/19 12:24:17;;;;;;;16.77;6.07;;;;;;;;;;5095270;28;20947;-73
2022/06/19 12:26:46;;;;;;;18.47;6.37;;;;;;;;;;5095619;28;20450;-73
2022/06/19 12:29:21;;;;;;;15.63;5.80;;;;;;;;;;5095414;28;20461;-73
2022/06/19 12:31:49;;;;;;;24.17;7.77;;;;;;;;;;5095421;28;20469;-73
2022/06/19 12:34:22;;;;;;;11.53;6.07;;;;;;;;;;5095303;28;20454;-73
2022/06/19 12:36:49;;;;;;;15.43;5.93;;;;;;;;;;5095381;28;20457;-73
2022/06/19 12:39:17;;;;;;;12.00;5.80;;;;;;;;;;5095073;28;20482;-73
2022/06/19 12:41:48;;;;;;;19.33;6.80;;;;;;;;;;5095121;28;20458;-73
2022/06/19 12:44:24;;;;;;;11.30;6.17;;;;;;;;;;5094890;28;20450;-73
2022/06/19 12:46:56;;;;;;;13.50;5.63;;;;;;;;;;5095057;28;20464;-73
2022/06/19 12:49:31;;;;;;;14.37;6.73;;;;;;;;;;5094940;28;20465;-73
2022/06/19 12:52:03;;;;;;;14.43;5.97;;;;;;;;;;5094594;28;20465;-73
2022/06/19 12:54:39;;;;;;;13.20;6.40;;;;;;;;;;5094629;28;20512;-73
2022/06/19 12:57:08;;;;;;;11.60;7.27;;;;;;;;;;5094464;28;20453;-74
2022/06/19 12:59:48;;;;;;;14.60;6.63;;;;;;;;;;5094749;28;20493;-73
2022/06/19 13:02:18;;;;;;;21.20;7.70;;;;;;;;;;5094923;28;20466;-73
2022/06/19 13:04:52;;;;;;;17.40;6.90;;;;;;;;;;5094571;28;20454;-73
2022/06/19 13:07:27;;;;;;;16.17;5.80;;;;;;;;;;5094475;28;20454;-73
2022/06/19 13:10:00;;;;;;;16.73;7.20;;;;;;;;;;5094609;28;20457;-73
2022/06/19 13:12:35;;;;;;;11.57;6.37;;;;;;;;;;5094686;28;20473;-73
2022/06/19 13:15:17;;;;;;;17.50;6.40;;;;;;;;;;5094580;28;20450;-73
2022/06/19 13:17:48;;;;;;;12.90;6.37;;;;;;;;;;5079501;28;20457;-74
2022/06/19 13:20:27;;;;;;;11.83;6.67;;;;;;;;;;5094428;28;20590;-73
2022/06/19 13:23:00;;;;;;;14.83;7.27;;;;;;;;;;5094673;28;20523;-74
2022/06/19 13:25:33;;;;;;;18.37;6.83;;;;;;;;;;5094048;28;20462;-73
2022/06/19 13:28:05;;;;;;;18.00;8.60;;;;;;;;;;5094366;28;20454;-73
2022/06/19 13:30:39;;;;;;;15.77;7.33;;;;;;;;;;5094312;28;20477;-73
2022/06/19 13:33:12;;;;;;;16.90;6.70;;;;;;;;;;5094263;28;20450;-73
2022/06/19 13:35:44;;;;;;;16.17;6.57;;;;;;;;;;5093925;28;20488;-73
2022/06/19 13:38:29;;;;;;;15.63;7.10;;;;;;;;;;5093862;28;20575;-73
2022/06/19 13:41:00;;;;;;;19.57;6.97;;;;;;;;;;5094024;28;20470;-73
2022/06/19 13:43:33;;;;;;;23.27;8.40;;;;;;;;;;5093850;28;20455;-73
2022/06/19 13:46:07;;;;;;;18.63;7.90;;;;;;;;;;5093855;28;20534;-73
2022/06/19 13:48:39;;;;;;;14.00;6.93;;;;;;;;;;5093858;28;20456;-73
2022/06/19 13:51:10;;;;;;;12.30;7.10;;;;;;;;;;5093751;28;20470;-73
2022/06/19 13:53:41;;;;;;;20.13;7.40;;;;;;;;;;5093483;28;20451;-73
2022/06/19 13:56:10;;;;;;;13.60;7.07;;;;;;;;;;5093858;28;20908;-73
2022/06/19 13:58:52;;;;;;;17.93;7.57;;;;;;;;;;5093932;28;20487;-73
2022/06/19 14:01:24;;;;;;;13.00;6.57;;;;;;;;;;5093598;28;20475;-73
2022/06/19 14:06:59;;;;;;;14.93;7.80;;;;;;;;;;5093114;28;20431;-73
2022/06/19 14:09:35;;;;;;;13.00;6.73;;;;;;;;;;5093226;28;20454;-73
2022/06/19 14:12:06;;;;;;;13.50;8.43;;;;;;;;;;5093495;28;20492;-73
2022/06/19 14:14:38;;;;;;;21.67;7.00;;;;;;;;;;5093420;28;20931;-73
2022/06/19 14:17:09;;;;;;;16.93;8.93;;;;;;;;;;5093352;28;20451;-73
2022/06/19 14:19:43;;;;;;;13.23;6.73;;;;;;;;;;5093385;28;20490;-73
2022/06/19 14:22:15;;;;;;;18.10;8.83;;;;;;;;;;5093239;28;20473;-73
2022/06/19 14:24:48;;;;;;;13.17;7.13;;;;;;;;;;5093068;28;20469;-72
2022/06/19 14:27:21;;;;;;;8.40;6.87;;;;;;;;;;5093191;28;20461;-72
2022/06/19 14:29:52;;;;;;;24.60;7.53;;;;;;;;;;5093535;28;20442;-73
2022/06/19 14:32:20;;;;;;;13.63;6.83;;;;;;;;;;5093083;28;20562;-72
2022/06/19 14:35:08;;;;;;;13.70;7.40;;;;;;;;;;5093137;28;20458;-73
2022/06/19 14:37:46;;;;;;;19.30;8.00;;;;;;;;;;5093098;28;20504;-73
2022/06/19 14:40:36;;;;;;;16.63;7.30;;;;;;;;;;5092970;28;20489;-73
2022/06/19 14:43:06;;;;;;;18.33;8.23;;;;;;;;;;5093051;28;20557;-73
2022/06/19 14:45:36;;;;;;;19.60;7.70;;;;;;;;;;5092942;28;20458;-72
2022/06/19 14:48:10;;;;;;;14.80;7.53;;;;;;;;;;5092997;28;20455;-74
2022/06/19 14:50:46;;;;;;;22.90;9.03;;;;;;;;;;5093075;28;20968;-75
2022/06/19 14:53:37;;;;;;;17.03;8.50;;;;;;;;;;5092571;28;20454;-74
2022/06/19 14:56:22;;;;;;;14.80;7.13;;;;;;;;;;5092043;28;20502;-74
2022/06/19 14:58:51;;;;;;;18.13;7.93;;;;;;;;;;5082951;28;20486;-75
2022/06/19 15:01:22;;;;;;;12.53;7.13;;;;;;;;;;5092736;28;20976;-74
2022/06/19 15:03:50;;;;;;;15.07;7.67;;;;;;;;;;5092794;28;20806;-73